Time;durP1;ratioP1;P1;durP2;ratioP2;P2;SDS_P1;SDS_P2;PMS_P1;PMS_P2;Temp;Humidity;BMP_temperature;BMP_pressure;BME280_temperature;BME280_humidity;BME280_pressure;Samples;Min_cycle;Max_cycle;Signal;HPM_P1;HPM_P2
2023/09/26 00:00:58;;;;;;;0.10;0.10;;;;;;;20.99;48.31;101766.72;4991059;28;20081;-88
2023/09/26 00:03:24;;;;;;;0.10;0.10;;;;;;;21.01;48.86;101768.28;4974590;28;20038;-88
2023/09/26 00:05:49;;;;;;;0.20;0.20;;;;;;;20.81;49.33;101758.41;4990598;28;20046;-87
2023/09/26 00:08:15;;;;;;;0.10;0.10;;;;;;;20.92;49.30;101785.59;4974429;28;20030;-88
2023/09/26 00:10:41;;;;;;;0.10;0.10;;;;;;;20.91;49.47;101781.28;4974615;28;20031;-89
2023/09/26 00:13:06;;;;;;;0.20;0.20;;;;;;;20.85;49.54;101780.91;4974574;28;20073;-88
2023/09/26 00:15:32;;;;;;;0.10;0.10;;;;;;;20.66;49.66;101760.41;4991260;28;20109;-88
2023/09/26 00:17:58;;;;;;;0.10;0.10;;;;;;;20.71;50.01;101788.97;4974571;28;20026;-88
2023/09/26 00:20:23;;;;;;;0.10;0.10;;;;;;;20.69;50.15;101775.94;4958369;28;20041;-89
2023/09/26 00:22:50;;;;;;;0.10;0.10;;;;;;;20.73;49.86;101774.75;4991491;28;20116;-88
2023/09/26 00:25:15;;;;;;;0.10;0.10;;;;;;;20.72;50.10;101775.69;4958168;28;20035;-87
2023/09/26 00:27:41;;;;;;;0.10;0.10;;;;;;;20.55;50.03;101741.91;4974155;28;20041;-87
2023/09/26 00:30:08;;;;;;;0.20;0.20;;;;;;;20.80;50.27;101789.13;4974210;28;20030;-87
2023/09/26 00:32:34;;;;;;;0.10;0.10;;;;;;;20.62;50.98;101785.22;4974378;28;20116;-88
2023/09/26 00:35:01;;;;;;;0.20;0.20;;;;;;;20.62;50.87;101791.31;4974543;28;20065;-87
2023/09/26 00:37:26;;;;;;;0.10;0.10;;;;;;;20.60;50.48;101787.13;4991351;28;20019;-88
2023/09/26 00:39:53;;;;;;;0.10;0.10;;;;;;;20.59;50.42;101788.06;4974568;28;20038;-87
2023/09/26 00:42:18;;;;;;;0.10;0.10;;;;;;;20.49;50.79;101781.81;4990645;28;20042;-89
2023/09/26 00:44:44;;;;;;;0.20;0.20;;;;;;;20.45;50.58;101769.81;4989755;28;20030;-86
2023/09/26 00:47:09;;;;;;;0.10;0.10;;;;;;;20.57;50.32;101793.44;4991252;28;20153;-88
2023/09/26 00:49:35;;;;;;;0.10;0.10;;;;;;;20.52;50.31;101768.44;4990205;28;20034;-89
2023/09/26 00:52:01;;;;;;;0.13;0.13;;;;;;;20.37;50.77;101751.97;4974231;28;20042;-87
2023/09/26 00:54:27;;;;;;;0.10;0.10;;;;;;;20.43;50.88;101774.34;4973819;28;20054;-88
2023/09/26 00:56:52;;;;;;;0.10;0.10;;;;;;;20.29;51.17;101762.19;4973997;28;20057;-88
2023/09/26 00:59:18;;;;;;;0.10;0.10;;;;;;;20.37;51.32;101780.03;4957634;28;20030;-86
2023/09/26 01:01:45;;;;;;;0.10;0.10;;;;;;;20.19;51.58;101771.69;4973956;28;20069;-88
2023/09/26 01:04:10;;;;;;;0.10;0.10;;;;;;;20.12;52.01;101771.25;4974089;28;20121;-87
2023/09/26 01:06:36;;;;;;;0.10;0.10;;;;;;;20.07;52.33;101770.78;4973923;28;20037;-88
2023/09/26 01:09:03;;;;;;;0.10;0.10;;;;;;;20.15;51.78;101781.53;4973902;28;20041;-87
2023/09/26 01:11:28;;;;;;;0.10;0.10;;;;;;;19.96;52.16;101754.91;4973945;28;20022;-88
2023/09/26 01:13:54;;;;;;;0.20;0.20;;;;;;;19.99;51.85;101773.09;4989830;28;20410;-87
2023/09/26 01:16:20;;;;;;;0.10;0.10;;;;;;;19.97;52.18;101760.06;4957678;28;20026;-89
2023/09/26 01:18:46;;;;;;;0.10;0.10;;;;;;;20.04;51.83;101778.84;4957766;28;20030;-88
2023/09/26 01:21:11;;;;;;;0.10;0.10;;;;;;;19.97;52.62;101778.47;4989953;28;20453;-89
2023/09/26 01:23:37;;;;;;;0.20;0.20;;;;;;;19.97;52.63;101785.50;4974033;28;20065;-87
2023/09/26 01:26:03;;;;;;;0.10;0.10;;;;;;;19.92;52.15;101771.84;4973492;28;20053;-88
2023/09/26 01:28:28;;;;;;;0.10;0.10;;;;;;;19.96;52.28;101782.03;4960719;28;20104;-88
2023/09/26 01:30:54;;;;;;;0.20;0.20;;;;;;;19.90;52.12;101771.94;4993311;28;20468;-87
2023/09/26 01:33:21;;;;;;;0.10;0.10;;;;;;;19.85;52.65;101763.53;4977574;28;20460;-88
2023/09/26 01:35:48;;;;;;;0.20;0.20;;;;;;;20.01;52.38;101781.69;4977414;28;20105;-88
2023/09/26 01:38:14;;;;;;;0.10;0.10;;;;;;;19.94;52.60;101783.06;4977861;28;20038;-88
2023/09/26 01:40:41;;;;;;;0.10;0.10;;;;;;;19.93;52.48;101776.13;4961261;28;20480;-87
2023/09/26 01:43:06;;;;;;;0.10;0.10;;;;;;;19.82;52.80;101763.75;4977296;28;20034;-86
2023/09/26 01:45:32;;;;;;;0.10;0.10;;;;;;;19.99;52.33;101780.97;4977372;28;20477;-88
2023/09/26 01:47:57;;;;;;;0.10;0.10;;;;;;;19.84;53.17;101766.28;4977302;28;20061;-87
2023/09/26 01:50:23;;;;;;;0.10;0.10;;;;;;;19.94;53.17;101778.66;4977238;28;20027;-87
2023/09/26 01:52:49;;;;;;;0.10;0.10;;;;;;;19.75;53.34;101762.50;4994330;28;20066;-88
2023/09/26 01:55:21;;;;;;;0.10;0.10;;;;;;;19.76;54.00;101780.78;4961047;28;20184;-87
2023/09/26 01:57:48;;;;;;;0.10;0.10;;;;;;;19.70;54.05;101785.63;4976652;28;20027;-87
2023/09/26 02:00:13;;;;;;;0.10;0.10;;;;;;;19.60;53.40;101774.06;4977020;28;20081;-87
2023/09/26 02:02:49;;;;;;;0.10;0.10;;;;;;;19.41;53.91;101756.09;4976691;28;20031;-88
2023/09/26 02:05:17;;;;;;;0.20;0.20;;;;;;;19.55;53.66;101779.59;4960783;28;20092;-87
2023/09/26 02:07:43;;;;;;;0.10;0.10;;;;;;;19.46;53.57;101769.72;4977264;28;20030;-87
2023/09/26 02:10:09;;;;;;;0.20;0.20;;;;;;;19.42;53.94;101779.59;4976782;28;20037;-88
2023/09/26 02:12:35;;;;;;;0.10;0.10;;;;;;;19.47;54.08;101789.78;4992724;28;20031;-87
2023/09/26 02:15:03;;;;;;;0.10;0.10;;;;;;;19.44;54.34;101779.47;4992941;28;20088;-86
2023/09/26 02:17:29;;;;;;;0.10;0.10;;;;;;;19.36;55.53;101793.13;4976965;28;20049;-87
2023/09/26 02:19:55;;;;;;;0.10;0.10;;;;;;;19.32;55.13;101790.81;4976432;28;20500;-88
2023/09/26 02:22:20;;;;;;;0.15;0.15;;;;;;;19.26;55.90;101796.47;4992573;28;20034;-87
2023/09/26 02:24:50;;;;;;;0.10;0.10;;;;;;;19.10;56.42;101788.78;4992774;28;20026;-87
2023/09/26 02:27:16;;;;;;;0.10;0.10;;;;;;;19.08;56.78;101795.94;4993633;28;20518;-88
2023/09/26 02:29:41;;;;;;;0.10;0.10;;;;;;;19.09;57.17;101801.06;4992249;28;20026;-88
2023/09/26 02:32:07;;;;;;;0.10;0.10;;;;;;;19.05;57.20;101799.56;4976103;28;20041;-88
2023/09/26 02:34:32;;;;;;;0.20;0.20;;;;;;;18.89;57.53;101785.81;4993747;28;20085;-89
2023/09/26 02:36:58;;;;;;;0.10;0.10;;;;;;;19.06;57.58;101810.91;4960205;28;20535;-87
2023/09/26 02:39:23;;;;;;;0.15;0.15;;;;;;;18.96;58.23;101815.91;4960177;28;20045;-88
2023/09/26 02:41:49;;;;;;;0.10;0.10;;;;;;;18.95;58.86;101814.22;4976035;28;20492;-89
2023/09/26 02:44:14;;;;;;;0.10;0.10;;;;;;;18.92;59.21;101809.19;4993639;28;20035;-88
2023/09/26 02:46:40;;;;;;;0.10;0.10;;;;;;;18.83;59.64;101796.69;4992121;28;20035;-88
2023/09/26 02:49:05;;;;;;;0.10;0.10;;;;;;;18.94;60.32;101812.56;4975857;28;20034;-88
2023/09/26 02:51:31;;;;;;;0.20;0.20;;;;;;;18.76;60.83;101803.25;4991949;28;20066;-88
2023/09/26 02:53:56;;;;;;;0.20;0.20;;;;;;;18.66;60.46;101810.88;4975807;28;20046;-87
2023/09/26 02:56:22;;;;;;;0.15;0.15;;;;;;;18.59;60.81;101822.69;4959730;28;20432;-90
2023/09/26 02:58:47;;;;;;;0.20;0.20;;;;;;;18.47;60.88;101808.53;4975722;28;20026;-87
2023/09/26 03:01:16;;;;;;;0.10;0.10;;;;;;;18.46;60.60;101817.34;4976996;28;20045;-89
2023/09/26 03:03:41;;;;;;;0.10;0.10;;;;;;;18.35;60.27;101815.41;4960338;28;20117;-92
2023/09/26 03:06:07;;;;;;;0.10;0.10;;;;;;;18.37;60.34;101822.31;4960259;28;20041;-90
2023/09/26 03:08:33;;;;;;;0.10;0.10;;;;;;;18.38;60.50;101824.84;4976179;28;20034;-91
2023/09/26 03:11:01;;;;;;;0.10;0.10;;;;;;;18.27;60.54;101806.34;4960095;28;20042;-91
2023/09/26 03:13:33;;;;;;;0.10;0.10;;;;;;;18.18;60.70;101812.16;4960221;28;20508;-92
2023/09/26 03:15:59;;;;;;;0.15;0.15;;;;;;;18.29;59.88;101821.03;4977186;28;20026;-91
2023/09/26 03:18:26;;;;;;;0.10;0.10;;;;;;;18.15;60.09;101814.97;4960127;28;20042;-89
2023/09/26 03:20:52;;;;;;;0.10;0.10;;;;;;;18.11;60.03;101808.25;4960335;28;20470;-91
2023/09/26 03:23:18;;;;;;;0.10;0.10;;;;;;;18.22;59.51;101818.91;4975794;28;20035;-90
2023/09/26 03:25:44;;;;;;;0.10;0.10;;;;;;;18.20;59.09;101807.69;4959724;28;20504;-90
2023/09/26 03:28:09;;;;;;;0.10;0.10;;;;;;;18.32;59.35;101820.00;4959867;28;20081;-91
2023/09/26 03:30:35;;;;;;;0.10;0.10;;;;;;;18.19;59.42;101799.00;4975837;28;20026;-90
2023/09/26 03:33:00;;;;;;;0.10;0.10;;;;;;;18.33;58.90;101800.72;4959519;28;20093;-90
2023/09/26 03:35:26;;;;;;;0.10;0.10;;;;;;;18.37;58.76;101812.69;4959774;28;20042;-87
2023/09/26 03:37:52;;;;;;;0.20;0.20;;;;;;;18.36;59.40;101818.88;4975738;28;20065;-89
2023/09/26 03:40:18;;;;;;;0.15;0.15;;;;;;;18.28;59.08;101802.78;4959186;28;20038;-88
2023/09/26 03:42:43;;;;;;;0.10;0.10;;;;;;;18.23;59.34;101816.19;4959424;28;20026;-89
2023/09/26 03:45:09;;;;;;;0.20;0.20;;;;;;;18.21;59.44;101812.81;4975222;28;20500;-89
2023/09/26 03:47:35;;;;;;;0.10;0.10;;;;;;;18.17;59.55;101806.06;4967958;28;20036;-92
2023/09/26 03:50:00;;;;;;;0.10;0.10;;;;;;;17.90;59.91;101771.97;4974631;28;20034;-89
2023/09/26 03:52:26;;;;;;;0.20;0.20;;;;;;;18.18;59.84;101796.44;4992237;28;20033;-87
2023/09/26 03:54:51;;;;;;;0.10;0.10;;;;;;;18.14;59.66;101795.78;4974822;28;20026;-87
2023/09/26 03:57:17;;;;;;;0.10;0.10;;;;;;;18.01;60.58;101795.72;4975011;28;20038;-90
2023/09/26 03:59:42;;;;;;;0.10;0.10;;;;;;;17.95;60.25;101798.69;4990997;28;20030;-88
2023/09/26 04:02:08;;;;;;;0.10;0.10;;;;;;;17.86;61.01;101807.13;4974568;28;20480;-88
2023/09/26 04:04:34;;;;;;;0.10;0.10;;;;;;;17.84;60.98;101805.53;4974923;28;20046;-89
2023/09/26 04:07:00;;;;;;;0.10;0.10;;;;;;;17.68;60.52;101771.56;4992033;28;20443;-87
2023/09/26 04:09:25;;;;;;;0.10;0.10;;;;;;;18.09;60.16;101812.72;4973797;28;20030;-90
2023/09/26 04:11:51;;;;;;;0.10;0.10;;;;;;;18.00;59.84;101804.50;4989840;28;20097;-89
2023/09/26 04:14:17;;;;;;;0.10;0.10;;;;;;;17.90;59.62;101813.03;5000459;28;20117;-92
2023/09/26 04:16:42;;;;;;;0.10;0.10;;;;;;;17.91;59.92;101815.53;4976770;28;20034;-91
2023/09/26 04:19:08;;;;;;;0.20;0.20;;;;;;;17.92;60.75;101811.16;4979891;28;20041;-93
2023/09/26 04:21:34;;;;;;;0.20;0.20;;;;;;;18.10;59.86;101823.13;4995135;28;20563;-86
2023/09/26 04:24:03;;;;;;;0.10;0.10;;;;;;;18.18;59.67;101820.00;4987485;28;20173;-88
2023/09/26 04:26:29;;;;;;;0.10;0.10;;;;;;;18.22;59.27;101819.75;4992950;28;20507;-90
2023/09/26 04:28:54;;;;;;;0.15;0.15;;;;;;;18.49;58.38;101819.78;4975631;28;20038;-91
2023/09/26 04:31:20;;;;;;;0.10;0.10;;;;;;;18.51;58.45;101811.84;4990175;28;20066;-86
2023/09/26 04:33:47;;;;;;;0.20;0.20;;;;;;;18.58;58.89;101815.72;5008252;28;20037;-85
2023/09/26 04:36:12;;;;;;;0.10;0.10;;;;;;;18.97;59.13;101827.25;4974676;28;20030;-88
2023/09/26 04:38:38;;;;;;;0.10;0.10;;;;;;;20.16;55.45;101835.81;4994884;28;20057;-92
2023/09/26 04:41:04;;;;;;;0.10;0.10;;;;;;;20.90;53.57;101837.47;4959828;28;20089;-90
2023/09/26 04:43:32;;;;;;;0.10;0.10;;;;;;;21.12;51.93;101839.34;4990600;28;20027;-88
2023/09/26 04:45:58;;;;;;;0.10;0.10;;;;;;;21.20;50.85;101836.16;4993298;28;20026;-90
2023/09/26 04:48:23;;;;;;;0.10;0.10;;;;;;;21.17;50.12;101836.41;4985436;28;20076;-92
2023/09/26 04:50:49;;;;;;;0.10;0.10;;;;;;;20.38;51.92;101836.91;4991944;28;20060;-89
2023/09/26 04:53:15;;;;;;;0.10;0.10;;;;;;;20.07;53.98;101833.81;4973495;28;20050;-91
2023/09/26 04:55:41;;;;;;;0.10;0.10;;;;;;;20.16;53.65;101835.81;4973216;28;20030;-90
2023/09/26 04:58:07;;;;;;;0.10;0.10;;;;;;;20.45;52.60;101843.41;4988644;28;20023;-87
2023/09/26 05:00:32;;;;;;;0.50;0.20;;;;;;;20.59;52.65;101841.50;4980015;28;20043;-87
2023/09/26 05:02:58;;;;;;;0.10;0.10;;;;;;;20.63;52.38;101839.47;4961510;28;20080;-90
2023/09/26 05:05:27;;;;;;;0.10;0.10;;;;;;;20.32;51.77;101843.44;4996324;28;20046;-88
2023/09/26 05:07:53;;;;;;;0.10;0.10;;;;;;;20.17;53.06;101836.63;5015188;28;20030;-89
2023/09/26 05:10:19;;;;;;;0.10;0.10;;;;;;;20.10;53.29;101846.72;4996283;28;20053;-86
2023/09/26 05:12:44;;;;;;;0.20;0.20;;;;;;;20.66;52.02;101841.91;4998602;28;20041;-87
2023/09/26 05:15:12;;;;;;;0.10;0.10;;;;;;;20.59;51.13;101843.28;4997055;28;20091;-88
2023/09/26 05:17:57;;;;;;;0.13;0.13;;;;;;;20.57;51.64;101850.44;4965661;28;20033;-89
2023/09/26 05:20:24;;;;;;;0.13;0.13;;;;;;;20.40;52.87;101848.97;4996039;28;20041;-90
2023/09/26 05:22:49;;;;;;;0.10;0.10;;;;;;;20.58;52.48;101846.88;5004312;28;20036;-87
2023/09/26 05:25:15;;;;;;;0.10;0.10;;;;;;;21.15;51.83;101856.72;4963865;28;20037;-87
2023/09/26 05:27:41;;;;;;;0.20;0.20;;;;;;;21.19;51.17;101837.13;4978462;28;20066;-87
2023/09/26 05:30:07;;;;;;;0.10;0.10;;;;;;;21.36;50.41;101844.63;4965263;28;20065;-89
2023/09/26 05:32:33;;;;;;;0.20;0.20;;;;;;;21.16;50.38;101853.16;4996994;28;20033;-89
2023/09/26 05:34:59;;;;;;;0.10;0.10;;;;;;;21.30;51.11;101855.59;4999441;28;20046;-91
2023/09/26 05:37:25;;;;;;;0.10;0.10;;;;;;;21.23;50.77;101843.81;4997429;28;20030;-85
2023/09/26 05:39:50;;;;;;;0.10;0.10;;;;;;;21.33;50.06;101854.53;5007701;28;20030;-88
2023/09/26 05:42:16;;;;;;;0.10;0.10;;;;;;;21.19;49.87;101863.44;4983569;28;20133;-93
2023/09/26 05:44:41;;;;;;;0.10;0.10;;;;;;;21.34;50.44;101867.59;5002547;28;20037;-89
2023/09/26 05:47:07;;;;;;;0.10;0.10;;;;;;;21.48;50.50;101871.81;5014274;28;20523;-89
2023/09/26 05:49:32;;;;;;;0.10;0.10;;;;;;;21.53;49.21;101869.66;4962491;28;20078;-89
2023/09/26 05:51:58;;;;;;;0.10;0.10;;;;;;;21.46;50.43;101868.47;5012725;28;20034;-88
2023/09/26 05:54:23;;;;;;;0.10;0.10;;;;;;;21.40;50.62;101861.84;4992048;28;20050;-89
2023/09/26 05:56:49;;;;;;;0.10;0.10;;;;;;;21.57;50.00;101867.66;4964513;28;20026;-88
2023/09/26 05:59:14;;;;;;;0.13;0.13;;;;;;;21.53;50.25;101853.03;5012941;28;20157;-89
2023/09/26 06:01:40;;;;;;;0.10;0.10;;;;;;;21.58;49.53;101864.06;4989177;28;20056;-87
2023/09/26 06:04:05;;;;;;;0.10;0.10;;;;;;;21.47;50.12;101865.72;4990599;28;20054;-89
2023/09/26 06:06:32;;;;;;;0.10;0.10;;;;;;;21.48;51.23;101867.41;4962434;28;20050;-86
2023/09/26 06:08:58;;;;;;;0.10;0.10;;;;;;;21.76;50.44;101874.03;4979339;28;20081;-93
2023/09/26 06:11:24;;;;;;;0.10;0.10;;;;;;;21.99;50.10;101864.34;4979693;28;20030;-90
2023/09/26 06:13:52;;;;;;;0.10;0.10;;;;;;;21.99;50.07;101864.34;5001804;28;20030;-93
2023/09/26 06:16:18;;;;;;;0.20;0.20;;;;;;;21.98;49.73;101854.78;4978930;28;20027;-89
2023/09/26 06:18:44;;;;;;;0.10;0.10;;;;;;;21.89;50.64;101852.84;4966431;28;20034;-88
2023/09/26 06:21:09;;;;;;;0.10;0.10;;;;;;;22.05;49.87;101832.28;4984380;28;20041;-90
2023/09/26 06:23:36;;;;;;;0.10;0.10;;;;;;;22.13;49.46;101849.31;4974866;28;20154;-89
2023/09/26 06:26:02;;;;;;;0.13;0.13;;;;;;;22.27;49.44;101857.81;4992446;28;20080;-91
2023/09/26 06:28:28;;;;;;;0.20;0.20;;;;;;;22.31;48.92;101861.03;4953615;28;20030;-90
2023/09/26 06:30:53;;;;;;;0.10;0.10;;;;;;;22.06;49.99;101848.91;4980719;28;20026;-92
2023/09/26 06:33:19;;;;;;;0.20;0.20;;;;;;;22.15;49.54;101850.88;4995744;28;20111;-91
2023/09/26 06:35:44;;;;;;;0.15;0.15;;;;;;;21.95;51.06;101862.09;4997823;28;20458;-90
2023/09/26 06:38:11;;;;;;;0.20;0.20;;;;;;;22.37;49.76;101860.56;4995164;28;20061;-88
2023/09/26 06:40:37;;;;;;;0.20;0.20;;;;;;;22.34;50.15;101868.72;4978899;28;20069;-89
2023/09/26 06:43:02;;;;;;;0.10;0.10;;;;;;;22.72;49.24;101862.19;5001486;28;20022;-88
2023/09/26 06:45:28;;;;;;;0.10;0.10;;;;;;;22.72;48.75;101862.19;4979586;28;20026;-90
2023/09/26 06:47:54;;;;;;;0.13;0.13;;;;;;;22.91;48.09;101870.31;4976744;28;20087;-84
2023/09/26 06:50:21;;;;;;;0.20;0.20;;;;;;;22.96;46.59;101872.56;4979566;28;20471;-86
2023/09/26 06:52:47;;;;;;;0.20;0.20;;;;;;;22.68;47.83;101866.00;5000513;28;20427;-87
2023/09/26 06:55:12;;;;;;;0.10;0.10;;;;;;;22.53;46.65;101858.38;4998164;28;20037;-89
2023/09/26 06:57:38;;;;;;;0.10;0.10;;;;;;;22.46;47.53;101864.25;4992048;28;20046;-91
2023/09/26 07:00:16;;;;;;;0.10;0.10;;;;;;;22.24;47.89;101871.25;4992872;28;20088;-92
2023/09/26 07:02:44;;;;;;;0.20;0.20;;;;;;;22.15;45.55;101856.16;4979731;28;20022;-91
2023/09/26 07:05:09;;;;;;;0.10;0.10;;;;;;;22.22;46.94;101885.47;4981933;28;20042;-90
2023/09/26 07:07:35;;;;;;;0.10;0.10;;;;;;;22.37;46.67;101873.75;4982111;28;20345;-88
2023/09/26 07:10:01;;;;;;;0.10;0.10;;;;;;;22.58;47.09;101879.94;4985449;28;20033;-88
2023/09/26 07:12:27;;;;;;;0.20;0.20;;;;;;;22.54;46.58;101865.34;4986683;28;20034;-88
2023/09/26 07:14:52;;;;;;;0.20;0.20;;;;;;;22.67;47.28;101848.50;5005203;28;20895;-87
2023/09/26 07:17:18;;;;;;;0.10;0.10;;;;;;;22.61;45.91;101877.06;4995807;28;20065;-88
2023/09/26 07:19:44;;;;;;;0.10;0.10;;;;;;;22.50;45.33;101874.44;4978099;28;20030;-92
2023/09/26 07:22:10;;;;;;;0.20;0.20;;;;;;;22.56;45.88;101866.03;4975325;28;20137;-90
2023/09/26 07:24:36;;;;;;;0.10;0.10;;;;;;;22.67;45.82;101869.63;4978404;28;20053;-92
2023/09/26 07:27:02;;;;;;;0.17;0.17;;;;;;;22.52;45.59;101869.91;4988221;28;20041;-90
2023/09/26 07:29:27;;;;;;;0.13;0.13;;;;;;;22.77;47.90;101870.56;4996705;28;20459;-92
2023/09/26 07:31:53;;;;;;;0.10;0.10;;;;;;;22.94;44.97;101872.69;4994835;28;20038;-93
2023/09/26 07:34:20;;;;;;;0.20;0.20;;;;;;;22.81;46.03;101874.59;4979113;28;20037;-90
2023/09/26 07:36:46;;;;;;;0.10;0.10;;;;;;;22.88;44.88;101875.81;4990931;28;20487;-92
2023/09/26 07:39:14;;;;;;;0.10;0.10;;;;;;;22.92;43.96;101869.34;4981613;28;20037;-91
2023/09/26 07:41:40;;;;;;;0.10;0.10;;;;;;;22.88;45.50;101845.00;4976221;28;20030;-90
2023/09/26 07:44:05;;;;;;;0.20;0.20;;;;;;;23.05;43.67;101863.91;4991728;28;20038;-88
2023/09/26 07:46:31;;;;;;;0.10;0.10;;;;;;;23.16;45.93;101866.50;4980107;28;20105;-88
2023/09/26 07:48:56;;;;;;;0.10;0.10;;;;;;;23.19;42.77;101861.78;4982892;28;20045;-88
2023/09/26 07:51:22;;;;;;;0.20;0.20;;;;;;;23.21;46.58;101848.47;4986033;28;20041;-90
2023/09/26 07:53:47;;;;;;;0.10;0.10;;;;;;;23.38;43.54;101870.81;5011361;28;20046;-87
2023/09/26 07:56:13;;;;;;;0.15;0.15;;;;;;;23.47;45.67;101857.69;4966431;28;20034;-89
2023/09/26 07:58:39;;;;;;;0.10;0.10;;;;;;;23.62;43.08;101860.88;4977706;28;20440;-90
2023/09/26 08:01:08;;;;;;;0.20;0.20;;;;;;;23.69;44.04;101869.94;4978771;28;20452;-91
2023/09/26 08:03:34;;;;;;;0.20;0.20;;;;;;;23.75;42.65;101860.66;4971841;28;20519;-84
2023/09/26 08:06:00;;;;;;;0.13;0.13;;;;;;;23.90;41.68;101858.53;4980813;28;20029;-91
2023/09/26 08:08:26;;;;;;;0.10;0.10;;;;;;;24.00;41.06;101859.41;4993911;28;20416;-87
2023/09/26 08:10:51;;;;;;;0.20;0.20;;;;;;;23.94;43.15;101847.56;5005275;28;20109;-86
2023/09/26 08:13:18;;;;;;;0.20;0.20;;;;;;;24.06;39.92;101858.88;4982001;28;20504;-89
2023/09/26 08:15:44;;;;;;;0.10;0.10;;;;;;;24.20;40.80;101853.25;4970411;28;20033;-93
2023/09/26 08:18:10;;;;;;;0.10;0.10;;;;;;;24.30;40.01;101861.19;4991191;28;20034;-89
2023/09/26 08:20:35;;;;;;;0.10;0.10;;;;;;;24.38;40.31;101865.81;4997907;28;20030;-92
2023/09/26 08:23:01;;;;;;;0.10;0.10;;;;;;;24.42;40.48;101852.22;5010592;28;20121;-91
2023/09/26 08:25:26;;;;;;;0.10;0.10;;;;;;;24.58;39.76;101867.53;4977833;28;20115;-90
2023/09/26 08:27:52;;;;;;;0.20;0.20;;;;;;;24.46;39.92;101843.03;4974244;28;20034;-90
2023/09/26 08:30:18;;;;;;;0.10;0.10;;;;;;;24.61;40.67;101864.66;4995671;28;20045;-89
2023/09/26 08:32:43;;;;;;;0.20;0.20;;;;;;;24.73;41.76;101860.91;5008164;28;20057;-90
2023/09/26 08:35:10;;;;;;;0.10;0.10;;;;;;;24.96;40.19;101865.94;4995799;28;20511;-92
2023/09/26 08:37:36;;;;;;;0.10;0.10;;;;;;;24.95;39.58;101873.03;4975809;28;20107;-93
2023/09/26 08:40:06;;;;;;;0.10;0.10;;;;;;;24.96;39.15;101869.41;4961669;28;20030;-89
2023/09/26 08:42:36;;;;;;;0.10;0.10;;;;;;;25.00;40.92;101865.53;4995324;28;20033;-92
2023/09/26 08:45:02;;;;;;;0.20;0.20;;;;;;;25.20;39.00;101869.03;4985147;28;20050;-91
2023/09/26 08:47:27;;;;;;;0.20;0.20;;;;;;;25.38;39.08;101872.66;4988841;28;20902;-88
2023/09/26 08:49:54;;;;;;;0.10;0.10;;;;;;;25.46;40.60;101880.72;4977412;28;20046;-90
2023/09/26 08:52:24;;;;;;;0.10;0.10;;;;;;;25.39;39.91;101860.25;4944573;28;20032;-89
2023/09/26 08:54:50;;;;;;;0.10;0.10;;;;;;;25.46;38.45;101875.41;4980000;28;20531;-93
2023/09/26 08:57:16;;;;;;;0.20;0.20;;;;;;;25.51;38.25;101866.22;4989889;28;20034;-91
2023/09/26 08:59:44;;;;;;;0.20;0.20;;;;;;;25.66;38.55;101875.38;4996785;28;20037;-93
2023/09/26 09:02:11;;;;;;;0.10;0.10;;;;;;;25.59;38.39;101875.13;5010141;28;20026;-89
2023/09/26 09:04:36;;;;;;;0.20;0.20;;;;;;;25.59;38.81;101863.69;4992993;28;20030;-92
2023/09/26 09:07:03;;;;;;;0.20;0.20;;;;;;;25.58;40.43;101880.56;4984046;28;20042;-92
2023/09/26 09:09:30;;;;;;;0.10;0.10;;;;;;;25.60;39.87;101865.38;4995286;28;20439;-89
2023/09/26 09:11:55;;;;;;;0.10;0.10;;;;;;;25.61;41.05;101867.88;4998904;28;20037;-91
2023/09/26 09:14:31;;;;;;;0.20;0.20;;;;;;;25.53;40.62;101865.09;4997399;28;20029;-93
2023/09/26 09:16:56;;;;;;;0.10;0.10;;;;;;;25.54;42.29;101852.69;4992090;28;20030;-92
2023/09/26 09:19:22;;;;;;;0.20;0.20;;;;;;;25.52;40.53;101858.13;4987283;28;20041;-88
2023/09/26 09:21:47;;;;;;;0.20;0.20;;;;;;;25.45;40.42;101859.66;4990499;28;20033;-91
2023/09/26 09:24:13;;;;;;;0.20;0.20;;;;;;;25.46;40.23;101864.81;4995570;28;20038;-91
2023/09/26 09:26:38;;;;;;;0.10;0.10;;;;;;;25.56;40.19;101856.00;4987176;28;20489;-87
2023/09/26 09:29:17;;;;;;;0.20;0.20;;;;;;;25.62;40.82;101858.09;4990180;28;20110;-90
2023/09/26 09:31:42;;;;;;;0.10;0.10;;;;;;;25.58;40.73;101846.13;4987479;28;20026;-88
2023/09/26 09:34:08;;;;;;;0.10;0.10;;;;;;;25.67;42.28;101856.72;4978203;28;20076;-91
2023/09/26 09:36:34;;;;;;;0.20;0.20;;;;;;;25.67;41.25;101829.38;5128422;23;20046;-92
2023/09/26 09:38:59;;;;;;;0.15;0.15;;;;;;;25.86;39.80;101834.63;4936289;29;20025;-92
2023/09/26 09:41:25;;;;;;;0.20;0.20;;;;;;;25.97;39.68;101845.06;4946924;28;20039;-88
2023/09/26 09:43:50;;;;;;;0.20;0.20;;;;;;;25.92;38.80;101849.94;4985662;28;20031;-91
2023/09/26 09:46:16;;;;;;;0.10;0.10;;;;;;;25.86;41.68;101850.56;4952094;28;20035;-89
2023/09/26 09:48:43;;;;;;;0.10;0.10;;;;;;;25.92;42.51;101852.59;4973287;28;20038;-93
2023/09/26 09:51:15;;;;;;;0.20;0.20;;;;;;;25.90;41.68;101841.31;4967174;28;20046;-89
2023/09/26 09:53:42;;;;;;;0.20;0.20;;;;;;;25.80;39.88;101845.81;4976781;28;20038;-92
2023/09/26 09:56:08;;;;;;;0.20;0.20;;;;;;;25.68;41.89;101833.69;4974970;28;20035;-93
2023/09/26 09:58:38;;;;;;;0.17;0.17;;;;;;;25.71;43.48;101841.38;4993102;28;20050;-93
2023/09/26 10:01:03;;;;;;;0.20;0.20;;;;;;;25.71;41.92;101833.44;4950289;28;20031;-90
2023/09/26 10:03:30;;;;;;;0.20;0.20;;;;;;;25.68;41.65;101820.44;4961453;28;20035;-89
2023/09/26 10:05:57;;;;;;;0.20;0.20;;;;;;;25.81;42.33;101828.94;4964133;28;20027;-94
2023/09/26 10:08:22;;;;;;;0.20;0.20;;;;;;;26.05;40.08;101827.56;4973087;28;20047;-94
2023/09/26 10:10:48;;;;;;;0.20;0.20;;;;;;;26.05;39.37;101790.44;4940613;28;20552;-90
2023/09/26 10:13:15;;;;;;;0.20;0.20;;;;;;;26.20;39.74;101813.66;4976207;28;20452;-90
2023/09/26 10:16:05;;;;;;;0.20;0.20;;;;;;;26.47;38.73;101825.28;4968944;28;20029;-93
2023/09/26 10:18:35;;;;;;;0.20;0.20;;;;;;;26.64;38.29;101813.00;4978927;28;20027;-91
2023/09/26 10:21:00;;;;;;;0.20;0.20;;;;;;;26.76;39.59;101807.31;4977613;28;20028;-93
2023/09/26 10:23:26;;;;;;;0.20;0.20;;;;;;;26.63;38.59;101763.56;5041401;23;20133;-91
2023/09/26 10:25:51;;;;;;;0.13;0.13;;;;;;;27.01;37.71;101789.75;5015803;28;20034;-92
2023/09/26 10:28:17;;;;;;;0.20;0.20;;;;;;;27.19;37.49;101800.41;4993220;28;20428;-88
2023/09/26 10:30:46;;;;;;;0.20;0.20;;;;;;;27.26;37.07;101795.31;4981660;28;20036;-87
2023/09/26 10:33:12;;;;;;;0.20;0.20;;;;;;;27.51;36.43;101806.91;4985947;28;20089;-91
2023/09/26 10:35:44;;;;;;;0.20;0.20;;;;;;;27.67;36.54;101802.56;4979136;28;20106;-88
2023/09/26 10:38:09;;;;;;;;;;;;;;;27.65;37.29;101803.69;4963686;28;20022;-90
2023/09/26 10:40:36;;;;;;;0.20;0.20;;;;;;;27.48;37.01;101794.78;4995371;28;19979;-90
2023/09/26 10:43:02;;;;;;;0.20;0.20;;;;;;;27.55;36.61;101779.03;4998783;28;20049;-90
2023/09/26 10:45:28;;;;;;;0.10;0.10;;;;;;;27.85;37.17;101794.50;5020303;28;20428;-90
2023/09/26 10:47:54;;;;;;;0.20;0.20;;;;;;;28.11;36.52;101790.91;4995001;28;20036;-91
2023/09/26 10:50:22;;;;;;;0.20;0.20;;;;;;;28.21;35.35;101783.63;4964378;28;20050;-90
2023/09/26 10:52:48;;;;;;;0.20;0.20;;;;;;;28.25;37.67;101780.50;4992587;28;20037;-92
2023/09/26 10:55:17;;;;;;;0.20;0.20;;;;;;;28.43;35.21;101788.41;4976723;28;20046;-91
2023/09/26 10:57:47;;;;;;;0.20;0.20;;;;;;;28.34;35.72;101775.25;4979242;28;20326;-88
2023/09/26 11:00:13;;;;;;;0.20;0.20;;;;;;;28.38;35.33;101773.91;4990655;28;20076;-90
2023/09/26 11:02:39;;;;;;;0.20;0.20;;;;;;;28.39;35.93;101765.75;4994397;28;20040;-85
2023/09/26 11:05:09;;;;;;;0.20;0.20;;;;;;;28.32;35.03;101769.22;5013041;28;20038;-92
2023/09/26 11:07:35;;;;;;;0.20;0.20;;;;;;;28.36;35.26;101759.94;4995394;28;20034;-89
2023/09/26 11:10:01;;;;;;;0.20;0.20;;;;;;;28.48;35.32;101770.09;4994442;28;20036;-87
2023/09/26 11:12:26;;;;;;;0.20;0.20;;;;;;;28.53;35.32;101770.44;4975952;28;20034;-89
2023/09/26 11:14:55;;;;;;;0.20;0.20;;;;;;;28.66;35.14;101777.94;4994744;28;20499;-91
2023/09/26 11:17:21;;;;;;;0.20;0.20;;;;;;;28.39;36.52;101743.63;4977627;28;20030;-90
2023/09/26 11:19:46;;;;;;;0.20;0.20;;;;;;;28.54;35.04;101760.63;4993434;28;20464;-89